sensor_id;sensor_type;location;lat;lon;timestamp;pressure;altitude;pressure_sealevel;temperature;humidity
40920;BME280;26652;50.280;19.026;2023-07-29T00:01:43;97737.78;;;20.14;100.00
40920;BME280;26652;50.280;19.026;2023-07-29T00:03:44;97730.25;;;19.98;100.00
40920;BME280;26652;50.280;19.026;2023-07-29T00:05:45;97722.78;;;20.06;100.00
40920;BME280;26652;50.280;19.026;2023-07-29T00:07:45;97732.63;;;20.14;100.00
40920;BME280;26652;50.280;19.026;2023-07-29T00:09:46;97732.88;;;20.08;100.00
40920;BME280;26652;50.280;19.026;2023-07-29T00:11:46;97731.56;;;20.05;100.00
40920;BME280;26652;50.280;19.026;2023-07-29T00:13:47;97730.53;;;20.01;100.00
40920;BME280;26652;50.280;19.026;2023-07-29T00:15:50;97723.81;;;20.00;100.00
40920;BME280;26652;50.280;19.026;2023-07-29T00:17:51;97736.75;;;20.10;100.00
40920;BME280;26652;50.280;19.026;2023-07-29T00:19:51;97729.25;;;20.04;100.00
40920;BME280;26652;50.280;19.026;2023-07-29T00:21:52;97739.59;;;20.09;100.00
40920;BME280;26652;50.280;19.026;2023-07-29T00:23:52;97730.81;;;20.10;100.00
40920;BME280;26652;50.280;19.026;2023-07-29T00:25:53;97739.09;;;20.12;100.00
40920;BME280;26652;50.280;19.026;2023-07-29T00:27:57;97730.78;;;19.95;100.00
40920;BME280;26652;50.280;19.026;2023-07-29T00:29:57;97722.75;;;19.76;100.00
40920;BME280;26652;50.280;19.026;2023-07-29T00:31:58;97727.66;;;19.87;100.00
40920;BME280;26652;50.280;19.026;2023-07-29T00:33:59;97727.69;;;20.03;100.00
40920;BME280;26652;50.280;19.026;2023-07-29T00:36:00;97729.78;;;20.11;100.00
40920;BME280;26652;50.280;19.026;2023-07-29T00:38:03;97718.41;;;20.12;100.00
40920;BME280;26652;50.280;19.026;2023-07-29T00:40:12;97733.66;;;20.13;100.00
40920;BME280;26652;50.280;19.026;2023-07-29T00:42:14;97708.84;;;20.07;100.00
40920;BME280;26652;50.280;19.026;2023-07-29T00:44:15;97715.56;;;20.13;100.00
40920;BME280;26652;50.280;19.026;2023-07-29T00:46:16;97746.88;;;20.32;100.00
40920;BME280;26652;50.280;19.026;2023-07-29T00:48:17;97729.00;;;20.15;100.00
40920;BME280;26652;50.280;19.026;2023-07-29T00:50:18;97723.81;;;20.00;100.00
40920;BME280;26652;50.280;19.026;2023-07-29T00:52:19;97722.28;;;20.04;100.00
40920;BME280;26652;50.280;19.026;2023-07-29T00:54:20;97719.69;;;20.09;100.00
40920;BME280;26652;50.280;19.026;2023-07-29T00:56:20;97714.53;;;20.14;100.00
40920;BME280;26652;50.280;19.026;2023-07-29T00:58:21;97712.22;;;20.18;100.00
40920;BME280;26652;50.280;19.026;2023-07-29T01:00:22;97724.88;;;20.24;100.00
40920;BME280;26652;50.280;19.026;2023-07-29T01:02:23;97713.50;;;20.20;100.00
40920;BME280;26652;50.280;19.026;2023-07-29T01:07:01;97738.06;;;20.28;100.00
40920;BME280;26652;50.280;19.026;2023-07-29T01:09:43;97740.91;;;20.27;100.00
40920;BME280;26652;50.280;19.026;2023-07-29T01:14:36;97708.06;;;20.02;100.00
40920;BME280;26652;50.280;19.026;2023-07-29T01:27:19;97699.81;;;20.20;100.00
40920;BME280;26652;50.280;19.026;2023-07-29T01:34:19;97723.88;;;20.36;100.00
40920;BME280;26652;50.280;19.026;2023-07-29T01:38:36;97697.72;;;19.97;100.00
40920;BME280;26652;50.280;19.026;2023-07-29T02:27:51;97751.81;;;20.39;100.00
40920;BME280;26652;50.280;19.026;2023-07-29T02:37:41;97740.19;;;20.41;100.00
40920;BME280;26652;50.280;19.026;2023-07-29T03:09:13;97743.44;;;19.96;100.00
40920;BME280;26652;50.280;19.026;2023-07-29T03:11:16;97770.63;;;20.19;100.00
40920;BME280;26652;50.280;19.026;2023-07-29T03:14:02;97748.84;;;19.89;100.00
40920;BME280;26652;50.280;19.026;2023-07-29T03:21:07;97762.34;;;20.12;100.00
40920;BME280;26652;50.280;19.026;2023-07-29T03:29:32;97739.78;;;19.87;100.00
40920;BME280;26652;50.280;19.026;2023-07-29T03:31:34;97741.84;;;19.85;100.00
40920;BME280;26652;50.280;19.026;2023-07-29T03:33:52;97762.03;;;19.98;100.00
40920;BME280;26652;50.280;19.026;2023-07-29T03:36:35;97774.75;;;20.10;100.00
40920;BME280;26652;50.280;19.026;2023-07-29T03:39:26;97763.09;;;20.07;100.00
40920;BME280;26652;50.280;19.026;2023-07-29T03:41:29;97758.44;;;19.99;100.00
40920;BME280;26652;50.280;19.026;2023-07-29T03:43:32;97766.66;;;19.91;100.00
40920;BME280;26652;50.280;19.026;2023-07-29T03:45:57;97783.00;;;20.07;100.00
40920;BME280;26652;50.280;19.026;2023-07-29T03:48:38;97745.75;;;19.87;100.00
40920;BME280;26652;50.280;19.026;2023-07-29T03:53:50;97762.31;;;20.02;100.00
40920;BME280;26652;50.280;19.026;2023-07-29T03:56:12;97773.72;;;20.16;100.00
40920;BME280;26652;50.280;19.026;2023-07-29T03:58:22;97760.53;;;20.07;100.00
40920;BME280;26652;50.280;19.026;2023-07-29T04:00:48;97761.81;;;20.05;100.00
40920;BME280;26652;50.280;19.026;2023-07-29T04:03:31;97769.22;;;19.81;100.00
40920;BME280;26652;50.280;19.026;2023-07-29T04:10:10;97772.31;;;19.83;100.00
40920;BME280;26652;50.280;19.026;2023-07-29T04:16:44;97773.97;;;20.09;100.00
40920;BME280;26652;50.280;19.026;2023-07-29T04:22:33;97764.97;;;20.32;100.00
40920;BME280;26652;50.280;19.026;2023-07-29T04:25:07;97775.59;;;20.41;100.00
40920;BME280;26652;50.280;19.026;2023-07-29T04:27:33;97801.75;;;20.70;100.00
40920;BME280;26652;50.280;19.026;2023-07-29T04:30:09;97776.66;;;20.70;100.00
40920;BME280;26652;50.280;19.026;2023-07-29T04:32:10;97788.53;;;20.86;100.00
40920;BME280;26652;50.280;19.026;2023-07-29T04:37:33;97787.25;;;20.89;100.00
40920;BME280;26652;50.280;19.026;2023-07-29T04:39:34;97782.84;;;20.84;100.00
40920;BME280;26652;50.280;19.026;2023-07-29T04:41:35;97795.25;;;21.03;100.00
40920;BME280;26652;50.280;19.026;2023-07-29T04:43:35;97787.22;;;21.09;100.00
40920;BME280;26652;50.280;19.026;2023-07-29T04:45:36;97776.63;;;21.11;100.00
40920;BME280;26652;50.280;19.026;2023-07-29T04:47:37;97779.47;;;21.14;100.00
40920;BME280;26652;50.280;19.026;2023-07-29T04:49:37;97784.13;;;21.28;100.00
40920;BME280;26652;50.280;19.026;2023-07-29T04:51:38;97790.03;;;21.53;100.00
40920;BME280;26652;50.280;19.026;2023-07-29T04:53:39;97795.03;;;21.94;100.00
40920;BME280;26652;50.280;19.026;2023-07-29T04:55:42;97790.19;;;22.32;97.45
40920;BME280;26652;50.280;19.026;2023-07-29T04:57:43;97791.16;;;23.09;90.41
40920;BME280;26652;50.280;19.026;2023-07-29T04:59:44;97813.28;;;24.02;83.29
40920;BME280;26652;50.280;19.026;2023-07-29T05:01:44;97800.59;;;24.57;78.34
40920;BME280;26652;50.280;19.026;2023-07-29T05:03:45;97810.81;;;24.86;76.36
40920;BME280;26652;50.280;19.026;2023-07-29T05:05:46;97818.09;;;24.51;77.74
40920;BME280;26652;50.280;19.026;2023-07-29T05:07:47;97814.19;;;23.92;78.81
40920;BME280;26652;50.280;19.026;2023-07-29T05:09:48;97819.47;;;23.63;81.66
40920;BME280;26652;50.280;19.026;2023-07-29T05:11:49;97811.66;;;23.10;85.95
40920;BME280;26652;50.280;19.026;2023-07-29T05:13:49;97809.34;;;23.09;86.22
40920;BME280;26652;50.280;19.026;2023-07-29T05:15:50;97812.22;;;23.07;87.32
40920;BME280;26652;50.280;19.026;2023-07-29T05:17:51;97808.25;;;22.86;89.08
40920;BME280;26652;50.280;19.026;2023-07-29T05:19:52;97800.53;;;22.76;87.81
40920;BME280;26652;50.280;19.026;2023-07-29T05:21:52;97825.97;;;22.79;88.59
40920;BME280;26652;50.280;19.026;2023-07-29T05:23:53;97798.53;;;22.63;89.06
40920;BME280;26652;50.280;19.026;2023-07-29T05:25:54;97818.53;;;22.62;90.95
40920;BME280;26652;50.280;19.026;2023-07-29T05:27:54;97816.25;;;22.56;91.83
40920;BME280;26652;50.280;19.026;2023-07-29T05:29:55;97802.31;;;22.41;90.88
40920;BME280;26652;50.280;19.026;2023-07-29T05:31:56;97801.59;;;22.31;91.37
40920;BME280;26652;50.280;19.026;2023-07-29T05:33:58;97816.94;;;22.22;91.90
40920;BME280;26652;50.280;19.026;2023-07-29T05:35:59;97822.44;;;22.15;93.71
40920;BME280;26652;50.280;19.026;2023-07-29T05:38:00;97812.84;;;22.16;94.74
40920;BME280;26652;50.280;19.026;2023-07-29T05:40:00;97813.13;;;22.09;95.02
40920;BME280;26652;50.280;19.026;2023-07-29T05:42:01;97819.88;;;22.10;94.06
40920;BME280;26652;50.280;19.026;2023-07-29T05:44:05;97823.75;;;22.13;94.71
40920;BME280;26652;50.280;19.026;2023-07-29T05:46:05;97815.41;;;22.21;95.67
40920;BME280;26652;50.280;19.026;2023-07-29T05:48:06;97819.81;;;22.21;95.38
40920;BME280;26652;50.280;19.026;2023-07-29T05:50:07;97821.63;;;22.20;96.57
40920;BME280;26652;50.280;19.026;2023-07-29T05:52:08;97817.72;;;22.23;95.73
40920;BME280;26652;50.280;19.026;2023-07-29T05:54:09;97810.22;;;22.21;96.06
40920;BME280;26652;50.280;19.026;2023-07-29T05:56:10;97816.72;;;22.18;94.33
40920;BME280;26652;50.280;19.026;2023-07-29T05:58:10;97816.19;;;22.22;95.07
40920;BME280;26652;50.280;19.026;2023-07-29T06:00:11;97809.16;;;22.27;94.44
40920;BME280;26652;50.280;19.026;2023-07-29T06:02:12;97821.22;;;22.47;94.91
40920;BME280;26652;50.280;19.026;2023-07-29T06:04:13;97817.59;;;22.48;94.32
40920;BME280;26652;50.280;19.026;2023-07-29T06:06:13;97822.56;;;22.39;95.04
40920;BME280;26652;50.280;19.026;2023-07-29T06:08:14;97813.50;;;22.37;93.76
40920;BME280;26652;50.280;19.026;2023-07-29T06:10:15;97825.97;;;22.35;93.23
40920;BME280;26652;50.280;19.026;2023-07-29T06:12:19;97829.09;;;22.32;93.15
40920;BME280;26652;50.280;19.026;2023-07-29T06:14:20;97828.03;;;22.33;92.71
40920;BME280;26652;50.280;19.026;2023-07-29T06:16:21;97833.44;;;22.41;91.83
40920;BME280;26652;50.280;19.026;2023-07-29T06:18:21;97819.88;;;22.55;92.83
40920;BME280;26652;50.280;19.026;2023-07-29T06:20:22;97831.69;;;22.71;91.79
40920;BME280;26652;50.280;19.026;2023-07-29T06:22:23;97829.84;;;22.76;89.72
40920;BME280;26652;50.280;19.026;2023-07-29T06:24:23;97822.34;;;22.75;89.22
40920;BME280;26652;50.280;19.026;2023-07-29T06:26:24;97831.34;;;22.88;87.96
40920;BME280;26652;50.280;19.026;2023-07-29T06:28:25;97830.28;;;22.89;88.12
40920;BME280;26652;50.280;19.026;2023-07-29T06:30:25;97849.41;;;22.98;89.21
40920;BME280;26652;50.280;19.026;2023-07-29T06:32:26;97853.16;;;22.87;87.27
40920;BME280;26652;50.280;19.026;2023-07-29T06:34:26;97836.09;;;22.75;87.71
40920;BME280;26652;50.280;19.026;2023-07-29T06:36:27;97838.91;;;22.84;88.68
40920;BME280;26652;50.280;19.026;2023-07-29T06:38:28;97842.22;;;22.90;88.44
40920;BME280;26652;50.280;19.026;2023-07-29T06:40:29;97851.81;;;22.89;88.05
40920;BME280;26652;50.280;19.026;2023-07-29T06:42:29;97844.81;;;22.90;87.46
40920;BME280;26652;50.280;19.026;2023-07-29T06:44:30;97847.13;;;22.91;87.99
40920;BME280;26652;50.280;19.026;2023-07-29T06:46:30;97849.88;;;23.05;87.28
40920;BME280;26652;50.280;19.026;2023-07-29T06:48:31;97845.00;;;22.98;86.41
40920;BME280;26652;50.280;19.026;2023-07-29T06:50:32;97840.31;;;23.00;86.97
40920;BME280;26652;50.280;19.026;2023-07-29T06:52:33;97844.31;;;23.16;87.06
40920;BME280;26652;50.280;19.026;2023-07-29T06:54:34;97844.19;;;23.32;87.32
40920;BME280;26652;50.280;19.026;2023-07-29T06:56:34;97842.47;;;23.22;85.54
40920;BME280;26652;50.280;19.026;2023-07-29T06:58:35;97854.94;;;23.20;86.61
40920;BME280;26652;50.280;19.026;2023-07-29T07:00:36;97846.34;;;23.25;87.67
40920;BME280;26652;50.280;19.026;2023-07-29T07:02:36;97841.38;;;23.28;88.44
40920;BME280;26652;50.280;19.026;2023-07-29T07:04:37;97841.00;;;23.40;88.04
40920;BME280;26652;50.280;19.026;2023-07-29T07:06:38;97852.81;;;23.56;89.23
40920;BME280;26652;50.280;19.026;2023-07-29T07:08:38;97840.22;;;23.39;86.78
40920;BME280;26652;50.280;19.026;2023-07-29T07:10:39;97846.75;;;23.37;85.88
40920;BME280;26652;50.280;19.026;2023-07-29T07:12:40;97845.28;;;23.26;86.44
40920;BME280;26652;50.280;19.026;2023-07-29T07:14:40;97860.88;;;23.26;86.95
40920;BME280;26652;50.280;19.026;2023-07-29T07:16:41;97856.03;;;23.14;87.52
40920;BME280;26652;50.280;19.026;2023-07-29T07:18:41;97844.88;;;23.13;88.23
40920;BME280;26652;50.280;19.026;2023-07-29T07:20:42;97848.75;;;23.16;88.84
40920;BME280;26652;50.280;19.026;2023-07-29T07:22:43;97855.13;;;23.29;88.19
40920;BME280;26652;50.280;19.026;2023-07-29T07:24:44;97861.63;;;23.26;87.36
40920;BME280;26652;50.280;19.026;2023-07-29T07:26:44;97859.22;;;23.35;87.55
40920;BME280;26652;50.280;19.026;2023-07-29T07:28:45;97844.41;;;23.35;87.27
40920;BME280;26652;50.280;19.026;2023-07-29T07:30:46;97848.06;;;23.34;87.71
40920;BME280;26652;50.280;19.026;2023-07-29T07:32:47;97840.81;;;23.31;87.08
40920;BME280;26652;50.280;19.026;2023-07-29T07:34:47;97849.50;;;23.45;86.16
40920;BME280;26652;50.280;19.026;2023-07-29T07:36:48;97856.97;;;23.57;87.42
40920;BME280;26652;50.280;19.026;2023-07-29T07:38:49;97844.75;;;23.58;83.95
40920;BME280;26652;50.280;19.026;2023-07-29T07:40:56;97844.19;;;23.61;84.09
40920;BME280;26652;50.280;19.026;2023-07-29T07:42:57;97860.69;;;23.94;83.88
40920;BME280;26652;50.280;19.026;2023-07-29T07:44:58;97860.75;;;24.12;80.23
40920;BME280;26652;50.280;19.026;2023-07-29T07:46:58;97847.22;;;24.34;80.95
40920;BME280;26652;50.280;19.026;2023-07-29T07:48:59;97853.22;;;24.54;78.44
40920;BME280;26652;50.280;19.026;2023-07-29T07:50:59;97839.91;;;24.55;77.64
40920;BME280;26652;50.280;19.026;2023-07-29T07:53:00;97853.03;;;24.83;76.14
40920;BME280;26652;50.280;19.026;2023-07-29T07:55:02;97846.88;;;24.60;75.34
40920;BME280;26652;50.280;19.026;2023-07-29T07:57:03;97854.81;;;24.50;76.71
40920;BME280;26652;50.280;19.026;2023-07-29T07:59:03;97850.47;;;24.45;77.87
40920;BME280;26652;50.280;19.026;2023-07-29T08:01:05;97836.53;;;24.36;77.32
40920;BME280;26652;50.280;19.026;2023-07-29T08:03:06;97857.84;;;24.57;78.54
40920;BME280;26652;50.280;19.026;2023-07-29T08:05:07;97832.31;;;24.59;78.19
40920;BME280;26652;50.280;19.026;2023-07-29T08:07:08;97844.56;;;24.58;74.49
40920;BME280;26652;50.280;19.026;2023-07-29T08:09:09;97844.00;;;24.61;71.98
40920;BME280;26652;50.280;19.026;2023-07-29T08:11:10;97838.91;;;24.70;71.10
40920;BME280;26652;50.280;19.026;2023-07-29T08:13:10;97833.00;;;24.64;71.19
40920;BME280;26652;50.280;19.026;2023-07-29T08:15:11;97841.44;;;24.75;72.19
40920;BME280;26652;50.280;19.026;2023-07-29T08:17:12;97822.16;;;24.76;71.15
40920;BME280;26652;50.280;19.026;2023-07-29T08:19:12;97839.38;;;24.91;71.77
40920;BME280;26652;50.280;19.026;2023-07-29T08:21:13;97829.66;;;24.96;71.98
40920;BME280;26652;50.280;19.026;2023-07-29T08:23:14;97838.53;;;24.95;71.11
40920;BME280;26652;50.280;19.026;2023-07-29T08:25:14;97823.66;;;24.96;70.99
40920;BME280;26652;50.280;19.026;2023-07-29T08:27:15;97837.84;;;24.90;67.95
40920;BME280;26652;50.280;19.026;2023-07-29T08:29:16;97832.66;;;25.03;69.85
40920;BME280;26652;50.280;19.026;2023-07-29T08:31:16;97833.16;;;25.05;69.19
40920;BME280;26652;50.280;19.026;2023-07-29T08:33:17;97843.69;;;25.14;68.82
40920;BME280;26652;50.280;19.026;2023-07-29T08:35:17;97841.19;;;25.23;71.17
40920;BME280;26652;50.280;19.026;2023-07-29T08:37:18;97853.50;;;25.50;69.18
40920;BME280;26652;50.280;19.026;2023-07-29T08:39:19;97842.22;;;25.54;69.12
40920;BME280;26652;50.280;19.026;2023-07-29T08:41:25;97846.78;;;25.76;70.19
40920;BME280;26652;50.280;19.026;2023-07-29T08:43:29;97827.44;;;25.63;69.05
40920;BME280;26652;50.280;19.026;2023-07-29T08:45:35;97825.34;;;25.79;67.28
40920;BME280;26652;50.280;19.026;2023-07-29T08:47:37;97827.28;;;25.73;69.93
40920;BME280;26652;50.280;19.026;2023-07-29T08:49:38;97821.44;;;25.63;69.09
40920;BME280;26652;50.280;19.026;2023-07-29T08:51:39;97827.06;;;25.56;67.92
40920;BME280;26652;50.280;19.026;2023-07-29T08:53:42;97815.84;;;25.56;67.01
40920;BME280;26652;50.280;19.026;2023-07-29T08:55:43;97818.28;;;25.66;67.15
40920;BME280;26652;50.280;19.026;2023-07-29T08:57:45;97823.00;;;25.64;68.88
40920;BME280;26652;50.280;19.026;2023-07-29T08:59:45;97823.19;;;25.54;69.15
40920;BME280;26652;50.280;19.026;2023-07-29T09:01:47;97813.44;;;25.46;67.85
40920;BME280;26652;50.280;19.026;2023-07-29T09:03:47;97804.94;;;25.40;67.18
40920;BME280;26652;50.280;19.026;2023-07-29T09:05:48;97817.88;;;25.45;66.43
40920;BME280;26652;50.280;19.026;2023-07-29T09:07:51;97812.66;;;25.45;64.67
40920;BME280;26652;50.280;19.026;2023-07-29T09:09:53;97826.75;;;25.58;66.51
40920;BME280;26652;50.280;19.026;2023-07-29T09:11:54;97805.91;;;25.58;66.38
40920;BME280;26652;50.280;19.026;2023-07-29T09:13:54;97802.91;;;25.37;66.41
40920;BME280;26652;50.280;19.026;2023-07-29T09:15:59;97812.66;;;25.45;68.11
40920;BME280;26652;50.280;19.026;2023-07-29T09:18:08;97815.75;;;25.47;68.00
40920;BME280;26652;50.280;19.026;2023-07-29T09:20:10;97802.41;;;25.35;68.21
40920;BME280;26652;50.280;19.026;2023-07-29T09:22:18;97808.31;;;25.27;66.52
40920;BME280;26652;50.280;19.026;2023-07-29T09:24:20;97796.91;;;25.36;67.28
40920;BME280;26652;50.280;19.026;2023-07-29T09:26:25;97801.38;;;25.63;67.19
40920;BME280;26652;50.280;19.026;2023-07-29T09:28:26;97798.09;;;25.71;67.83
40920;BME280;26652;50.280;19.026;2023-07-29T09:30:28;97793.56;;;25.77;66.33
40920;BME280;26652;50.280;19.026;2023-07-29T09:32:28;97794.31;;;25.64;65.89
40920;BME280;26652;50.280;19.026;2023-07-29T09:34:29;97790.69;;;25.65;65.50
40920;BME280;26652;50.280;19.026;2023-07-29T09:36:31;97798.78;;;25.77;64.81
40920;BME280;26652;50.280;19.026;2023-07-29T09:38:32;97792.28;;;25.88;63.18
40920;BME280;26652;50.280;19.026;2023-07-29T09:40:37;97804.66;;;25.96;64.15
40920;BME280;26652;50.280;19.026;2023-07-29T09:42:39;97795.00;;;25.83;63.93
40920;BME280;26652;50.280;19.026;2023-07-29T09:44:39;97800.13;;;25.88;65.00
40920;BME280;26652;50.280;19.026;2023-07-29T09:46:40;97798.09;;;25.85;63.86
40920;BME280;26652;50.280;19.026;2023-07-29T09:48:40;97781.50;;;25.81;64.02
40920;BME280;26652;50.280;19.026;2023-07-29T09:50:43;97789.59;;;25.80;64.61
40920;BME280;26652;50.280;19.026;2023-07-29T09:52:44;97780.53;;;25.77;63.39
40920;BME280;26652;50.280;19.026;2023-07-29T09:54:46;97793.66;;;25.72;64.59
40920;BME280;26652;50.280;19.026;2023-07-29T09:56:47;97787.19;;;25.69;64.16
40920;BME280;26652;50.280;19.026;2023-07-29T09:58:49;97790.47;;;25.89;63.52
40920;BME280;26652;50.280;19.026;2023-07-29T10:00:50;97797.31;;;25.98;64.70
40920;BME280;26652;50.280;19.026;2023-07-29T10:02:50;97772.88;;;25.94;65.49
40920;BME280;26652;50.280;19.026;2023-07-29T10:04:52;97791.47;;;26.01;64.17
40920;BME280;26652;50.280;19.026;2023-07-29T10:06:53;97771.66;;;26.00;62.00
40920;BME280;26652;50.280;19.026;2023-07-29T10:08:54;97767.47;;;26.13;61.21
40920;BME280;26652;50.280;19.026;2023-07-29T10:10:56;97758.94;;;26.35;59.94
40920;BME280;26652;50.280;19.026;2023-07-29T10:12:58;97762.78;;;26.60;62.69
40920;BME280;26652;50.280;19.026;2023-07-29T10:15:04;97768.81;;;26.91;61.20
40920;BME280;26652;50.280;19.026;2023-07-29T10:17:05;97776.47;;;27.19;59.62
40920;BME280;26652;50.280;19.026;2023-07-29T10:19:07;97791.59;;;27.30;57.88
40920;BME280;26652;50.280;19.026;2023-07-29T10:21:09;97767.81;;;27.10;58.06
40920;BME280;26652;50.280;19.026;2023-07-29T10:23:11;97779.69;;;27.16;57.63
40920;BME280;26652;50.280;19.026;2023-07-29T10:25:16;97772.19;;;26.92;57.84
40920;BME280;26652;50.280;19.026;2023-07-29T10:27:18;97768.59;;;26.79;58.03
40920;BME280;26652;50.280;19.026;2023-07-29T10:29:20;97757.41;;;26.87;57.32
40920;BME280;26652;50.280;19.026;2023-07-29T10:31:22;97762.06;;;26.68;58.74
40920;BME280;26652;50.280;19.026;2023-07-29T10:33:23;97763.25;;;26.62;58.19
40920;BME280;26652;50.280;19.026;2023-07-29T10:35:24;97764.97;;;26.66;58.99
40920;BME280;26652;50.280;19.026;2023-07-29T10:37:26;97761.94;;;26.73;60.13
40920;BME280;26652;50.280;19.026;2023-07-29T10:39:26;97778.31;;;26.87;60.28
40920;BME280;26652;50.280;19.026;2023-07-29T10:43:56;97765.84;;;26.84;59.18
40920;BME280;26652;50.280;19.026;2023-07-29T10:45:58;97772.75;;;26.80;58.83
40920;BME280;26652;50.280;19.026;2023-07-29T10:50:37;97759.63;;;26.71;57.60
40920;BME280;26652;50.280;19.026;2023-07-29T10:52:40;97761.94;;;27.04;58.45
40920;BME280;26652;50.280;19.026;2023-07-29T10:54:47;97765.81;;;27.07;57.62
40920;BME280;26652;50.280;19.026;2023-07-29T10:56:49;97749.72;;;26.82;58.07
40920;BME280;26652;50.280;19.026;2023-07-29T10:58:50;97768.47;;;26.84;58.55
40920;BME280;26652;50.280;19.026;2023-07-29T11:00:51;97761.53;;;26.80;60.37
40920;BME280;26652;50.280;19.026;2023-07-29T11:03:20;97771.66;;;26.81;59.64
40920;BME280;26652;50.280;19.026;2023-07-29T11:05:24;97768.25;;;26.72;60.14
40920;BME280;26652;50.280;19.026;2023-07-29T11:07:26;97751.25;;;26.83;60.97
40920;BME280;26652;50.280;19.026;2023-07-29T11:11:50;97751.06;;;26.80;58.60
40920;BME280;26652;50.280;19.026;2023-07-29T11:13:51;97742.22;;;26.89;59.44
40920;BME280;26652;50.280;19.026;2023-07-29T11:15:53;97740.59;;;27.02;59.19
40920;BME280;26652;50.280;19.026;2023-07-29T11:17:58;97756.03;;;27.21;57.68
40920;BME280;26652;50.280;19.026;2023-07-29T11:20:03;97749.91;;;27.25;57.52
40920;BME280;26652;50.280;19.026;2023-07-29T11:22:04;97755.00;;;27.39;57.78
40920;BME280;26652;50.280;19.026;2023-07-29T11:24:04;97748.22;;;27.29;57.12
40920;BME280;26652;50.280;19.026;2023-07-29T11:26:05;97755.78;;;27.40;57.31
40920;BME280;26652;50.280;19.026;2023-07-29T11:28:06;97741.03;;;27.44;57.63
40920;BME280;26652;50.280;19.026;2023-07-29T11:30:10;97738.59;;;27.56;56.39
40920;BME280;26652;50.280;19.026;2023-07-29T11:32:11;97732.13;;;27.45;56.50
40920;BME280;26652;50.280;19.026;2023-07-29T11:34:12;97736.13;;;27.51;55.67
40920;BME280;26652;50.280;19.026;2023-07-29T11:36:18;97725.19;;;27.40;57.17
40920;BME280;26652;50.280;19.026;2023-07-29T11:38:21;97722.59;;;27.49;58.10
40920;BME280;26652;50.280;19.026;2023-07-29T11:40:22;97735.22;;;27.55;56.51
40920;BME280;26652;50.280;19.026;2023-07-29T11:42:24;97729.16;;;27.29;56.82
40920;BME280;26652;50.280;19.026;2023-07-29T11:44:25;97753.59;;;27.24;57.40
40920;BME280;26652;50.280;19.026;2023-07-29T11:46:25;97725.72;;;27.11;58.39
40920;BME280;26652;50.280;19.026;2023-07-29T11:48:28;97728.84;;;27.30;58.01
40920;BME280;26652;50.280;19.026;2023-07-29T11:50:29;97739.84;;;27.58;57.78
40920;BME280;26652;50.280;19.026;2023-07-29T11:52:31;97721.06;;;27.56;56.68
40920;BME280;26652;50.280;19.026;2023-07-29T11:54:33;97718.41;;;27.39;56.58
40920;BME280;26652;50.280;19.026;2023-07-29T11:56:35;97724.41;;;27.40;55.20
40920;BME280;26652;50.280;19.026;2023-07-29T11:58:37;97719.19;;;27.48;56.68
40920;BME280;26652;50.280;19.026;2023-07-29T12:00:38;97710.44;;;27.53;56.27
40920;BME280;26652;50.280;19.026;2023-07-29T12:02:40;97707.84;;;27.53;55.55
40920;BME280;26652;50.280;19.026;2023-07-29T12:04:41;97713.22;;;27.56;55.67
40920;BME280;26652;50.280;19.026;2023-07-29T12:06:43;97729.75;;;27.83;57.10
40920;BME280;26652;50.280;19.026;2023-07-29T12:08:44;97724.50;;;27.74;54.61
40920;BME280;26652;50.280;19.026;2023-07-29T12:10:45;97714.66;;;27.71;54.63
40920;BME280;26652;50.280;19.026;2023-07-29T12:12:47;97716.03;;;27.60;55.59
40920;BME280;26652;50.280;19.026;2023-07-29T12:14:49;97714.13;;;27.52;56.11
40920;BME280;26652;50.280;19.026;2023-07-29T12:16:49;97707.72;;;27.75;57.04
40920;BME280;26652;50.280;19.026;2023-07-29T12:18:52;97706.97;;;27.83;54.77
40920;BME280;26652;50.280;19.026;2023-07-29T12:20:52;97705.13;;;27.92;54.76
40920;BME280;26652;50.280;19.026;2023-07-29T12:22:55;97702.66;;;27.96;53.31
40920;BME280;26652;50.280;19.026;2023-07-29T12:24:56;97704.34;;;27.83;52.29
40920;BME280;26652;50.280;19.026;2023-07-29T12:26:57;97694.66;;;27.84;53.59
40920;BME280;26652;50.280;19.026;2023-07-29T12:28:58;97704.34;;;27.83;51.74
40920;BME280;26652;50.280;19.026;2023-07-29T12:30:58;97707.88;;;27.79;54.48
40920;BME280;26652;50.280;19.026;2023-07-29T12:32:59;97696.19;;;27.67;53.45
40920;BME280;26652;50.280;19.026;2023-07-29T12:35:00;97695.44;;;27.76;53.96
40920;BME280;26652;50.280;19.026;2023-07-29T12:37:03;97708.19;;;28.03;56.02
40920;BME280;26652;50.280;19.026;2023-07-29T12:39:04;97689.25;;;28.06;54.18
40920;BME280;26652;50.280;19.026;2023-07-29T12:41:05;97690.59;;;28.21;54.05
40920;BME280;26652;50.280;19.026;2023-07-29T12:43:05;97680.81;;;27.83;55.77
40920;BME280;26652;50.280;19.026;2023-07-29T12:45:06;97683.88;;;28.03;56.15
40920;BME280;26652;50.280;19.026;2023-07-29T12:47:08;97693.06;;;28.35;55.20
40920;BME280;26652;50.280;19.026;2023-07-29T12:49:09;97687.22;;;28.12;54.00
40920;BME280;26652;50.280;19.026;2023-07-29T12:51:10;97679.88;;;28.05;54.88
40920;BME280;26652;50.280;19.026;2023-07-29T12:53:11;97684.66;;;27.86;53.42
40920;BME280;26652;50.280;19.026;2023-07-29T12:55:12;97681.56;;;27.92;54.50
40920;BME280;26652;50.280;19.026;2023-07-29T12:57:13;97676.34;;;27.75;54.52
40920;BME280;26652;50.280;19.026;2023-07-29T12:59:14;97680.66;;;27.80;54.38
40920;BME280;26652;50.280;19.026;2023-07-29T13:01:15;97680.66;;;27.80;55.91
40920;BME280;26652;50.280;19.026;2023-07-29T13:03:18;97675.72;;;27.78;53.64
40920;BME280;26652;50.280;19.026;2023-07-29T13:05:19;97670.50;;;27.61;54.73
40920;BME280;26652;50.280;19.026;2023-07-29T13:07:20;97678.50;;;27.73;54.70